Time;durP1;ratioP1;P1;durP2;ratioP2;P2;SDS_P1;SDS_P2;PMS_P1;PMS_P2;Temp;Humidity;BMP_temperature;BMP_pressure;BME280_temperature;BME280_humidity;BME280_pressure;Samples;Min_cycle;Max_cycle;Signal;HPM_P1;HPM_P2
2022/02/06 00:00:20;;;;;;;;;;;;;;;0.41;77.82;98577.54;104963;1270;60946;-23
2022/02/06 00:02:50;;;;;;;;;;;;;;;0.39;78.19;98580.89;104949;1270;75200;-23
2022/02/06 00:05:19;;;;;;;;;;;;;;;0.64;77.23;98581.40;104957;1270;76610;-23
2022/02/06 00:07:49;;;;;;;;;;;;;;;0.85;76.19;98578.19;105002;1270;72427;-23
2022/02/06 00:10:17;;;;;;;;;;;;;;;0.57;77.25;98584.67;104991;1270;61079;-23
2022/02/06 00:12:46;;;;;;;;;;;;;;;0.52;77.59;98584.23;105190;1270;61053;-24
2022/02/06 00:15:14;;;;;;;;;;;;;;;0.35;78.10;98588.42;105207;1270;75571;-23
2022/02/06 00:17:42;;;;;;;;;;;;;;;0.16;79.03;98581.95;104933;1270;76290;-24
2022/02/06 00:20:11;;;;;;;;;;;;;;;0.42;78.40;98590.84;104936;1270;74248;-23
2022/02/06 00:22:44;;;;;;;;;;;;;;;0.78;76.65;98592.70;104850;1270;61054;-23
2022/02/06 00:25:26;;;;;;;;;;;;;;;0.73;76.96;98587.66;104940;1270;61046;-24
2022/02/06 00:29:09;;;;;;;;;;;;;;;0.49;78.01;98592.73;105124;1270;74495;-24
2022/02/06 00:41:22;;;;;;;;;;;;;;;0.78;76.79;98598.36;104946;1270;74418;-23
2022/02/06 00:43:51;;;;;;;;;;;;;;;0.73;77.24;98615.15;104855;1270;74759;-23
2022/02/06 00:46:20;;;;;;;;;;;;;;;0.57;77.82;98615.23;104987;1270;73663;-23
2022/02/06 00:48:54;;;;;;;;;;;;;;;0.37;78.93;98611.06;104948;1270;61150;-23
2022/02/06 00:51:33;;;;;;;;;;;;;;;0.50;78.77;98612.98;104830;1271;61160;-23
2022/02/06 00:54:01;;;;;;;;;;;;;;;0.96;76.61;98602.61;104848;1270;74000;-23
2022/02/06 00:56:30;;;;;;;;;;;;;;;1.01;76.18;98600.81;104934;1270;75834;-24
2022/02/06 00:58:58;;;;;;;;;;;;;;;0.86;76.71;98605.14;104961;1270;73384;-24
2022/02/06 01:01:27;;;;;;;;;;;;;;;0.58;77.60;98605.45;104927;1270;61151;-23
2022/02/06 01:03:55;;;;;;;;;;;;;;;0.48;78.27;98602.52;105046;1270;61606;-23
2022/02/06 01:06:24;;;;;;;;;;;;;;;0.45;78.21;98587.09;105151;1270;73009;-23
2022/02/06 01:08:52;;;;;;;;;;;;;;;0.83;76.88;98585.11;105186;1270;75970;-23
2022/02/06 01:11:21;;;;;;;;;;;;;;;0.95;75.87;98589.52;105148;1268;74387;-23
2022/02/06 01:16:29;;;;;;;;;;;;;;;0.78;76.03;98581.09;105158;1270;61029;-23
2022/02/06 01:19:06;;;;;;;;;;;;;;;0.58;76.73;98581.36;105167;1270;75550;-23
2022/02/06 01:21:47;;;;;;;;;;;;;;;0.53;76.93;98587.23;105138;1270;74749;-24
2022/02/06 01:24:39;;;;;;;;;;;;;;;0.88;75.55;98579.05;105127;1270;75210;-23
2022/02/06 01:27:14;;;;;;;;;;;;;;;1.18;73.93;98591.08;105161;1269;61719;-23
2022/02/06 01:32:25;;;;;;;;;;;;;;;0.85;75.36;98589.31;105168;1270;74305;-24
2022/02/06 01:35:05;;;;;;;;;;;;;;;0.69;75.56;98587.52;105147;1270;76046;-25
2022/02/06 01:37:44;;;;;;;;;;;;;;;0.55;76.24;98581.52;105160;1270;74428;-25
2022/02/06 01:40:27;;;;;;;;;;;;;;;0.43;76.71;98577.62;104906;1270;62641;-23
2022/02/06 01:43:04;;;;;;;;;;;;;;;0.91;74.97;98580.27;105107;1270;62107;-24
2022/02/06 02:05:05;;;;;;;;;;;;;;;0.87;74.25;98588.87;104789;1271;72945;-24
2022/02/06 02:14:01;;;;;;;;;;;;;;;0.39;75.41;98588.23;105173;1270;75735;-24
2022/02/06 02:23:58;;;;;;;;;;;;;;;0.90;72.90;98588.39;105092;1271;61055;-24
2022/02/06 02:43:19;;;;;;;;;;;;;;;1.09;71.58;98597.04;104936;1270;75265;-25
2022/02/06 02:46:02;;;;;;;;;;;;;;;0.89;72.01;98598.86;104955;1270;74661;-24
2022/02/06 02:48:33;;;;;;;;;;;;;;;0.75;72.61;98599.16;104801;1270;61142;-24
2022/02/06 02:51:05;;;;;;;;;;;;;;;0.63;72.84;98596.83;104942;1270;61854;-24
2022/02/06 02:53:40;;;;;;;;;;;;;;;0.53;73.03;98596.45;104935;1270;75924;-24
2022/02/06 03:01:23;;;;;;;;;;;;;;;1.21;70.50;98591.29;104761;1270;60964;-24
2022/02/06 03:03:51;;;;;;;;;;;;;;;1.25;69.98;98592.48;104860;1270;61044;-23
2022/02/06 03:06:20;;;;;;;;;;;;;;;1.04;70.47;98586.83;105030;1270;75586;-24
2022/02/06 03:08:50;;;;;;;;;;;;;;;0.89;71.37;98588.42;104961;1270;75238;-24
2022/02/06 03:11:18;;;;;;;;;;;;;;;0.71;71.88;98592.18;105045;1271;74160;-24
2022/02/06 03:16:32;;;;;;;;;;;;;;;0.44;72.81;98588.52;104914;1270;60985;-24
2022/02/06 03:19:14;;;;;;;;;;;;;;;0.31;73.33;98589.98;104798;1270;74475;-24
2022/02/06 03:21:44;;;;;;;;;;;;;;;0.66;72.84;98585.79;104844;1270;75242;-23
2022/02/06 03:26:48;;;;;;;;;;;;;;;1.22;70.15;98583.40;104936;1270;61175;-24
2022/02/06 03:29:16;;;;;;;;;;;;;;;1.08;70.25;98578.61;104523;1270;431275;-24
2022/02/06 03:31:45;;;;;;;;;;;;;;;0.88;70.88;98578.23;104809;1271;74715;-24
2022/02/06 03:34:14;;;;;;;;;;;;;;;0.70;71.58;98579.41;104923;1270;76214;-24
2022/02/06 03:36:42;;;;;;;;;;;;;;;0.54;72.27;98580.68;104999;1270;74224;-24
2022/02/06 03:39:11;;;;;;;;;;;;;;;0.36;72.79;98577.61;105158;1270;60954;-24
2022/02/06 03:42:29;;;;;;;;;;;;;;;0.25;73.59;98578.28;104996;1272;61955;-23
2022/02/06 03:44:43;;;;;;;;;;;;;;;0.44;73.15;98570.94;104929;1270;75614;-24
2022/02/06 03:47:19;;;;;;;;;;;;;;;1.10;70.60;98573.39;104972;1270;75807;-23
2022/02/06 03:50:00;;;;;;;;;;;;;;;1.22;69.81;98572.46;104817;1271;74398;-24
2022/02/06 03:52:42;;;;;;;;;;;;;;;1.15;69.85;98577.08;105046;1271;61014;-24
2022/02/06 03:55:18;;;;;;;;;;;;;;;0.98;70.50;98568.67;105156;1271;61148;-24
2022/02/06 03:57:47;;;;;;;;;;;;;;;0.77;71.12;98568.14;105189;1270;75630;-23
2022/02/06 04:00:16;;;;;;;;;;;;;;;0.55;72.00;98570.08;105135;1271;74927;-24
2022/02/06 04:02:45;;;;;;;;;;;;;;;0.36;72.52;98567.70;105193;1270;72984;-24
2022/02/06 04:05:17;;;;;;;;;;;;;;;0.22;73.07;98564.09;105117;1273;61097;-23
2022/02/06 04:07:47;;;;;;;;;;;;;;;0.17;73.55;98561.61;105154;1270;61196;-24
2022/02/06 04:10:16;;;;;;;;;;;;;;;0.53;72.69;98564.49;105065;1270;74152;-25
2022/02/06 04:12:46;;;;;;;;;;;;;;;1.07;70.42;98558.80;105060;1270;76167;-24
2022/02/06 04:15:23;;;;;;;;;;;;;;;1.17;69.63;98558.81;105041;1270;74383;-24
2022/02/06 04:17:56;;;;;;;;;;;;;;;1.00;70.01;98557.98;104838;1270;61075;-24
2022/02/06 04:20:24;;;;;;;;;;;;;;;0.77;70.84;98553.96;104945;1270;61042;-24
2022/02/06 04:22:52;;;;;;;;;;;;;;;0.55;71.36;98552.98;105023;1270;75354;-24
2022/02/06 04:25:20;;;;;;;;;;;;;;;0.38;71.79;98555.50;105186;1270;75911;-24
2022/02/06 04:27:49;;;;;;;;;;;;;;;0.26;72.19;98552.14;105021;1270;73295;-24
2022/02/06 04:30:17;;;;;;;;;;;;;;;0.13;72.47;98553.08;104930;1270;61151;-24
2022/02/06 04:32:46;;;;;;;;;;;;;;;0.17;72.83;98553.56;105022;1270;61038;-23
2022/02/06 04:35:18;;;;;;;;;;;;;;;0.76;70.66;98552.80;104965;1270;75559;-25
2022/02/06 04:38:22;;;;;;;;;;;;;;;1.09;69.20;98548.62;104979;1270;76151;-24
2022/02/06 05:18:35;;;;;;;;;;;;;;;0.34;71.45;98550.38;104972;1270;76085;-24
2022/02/06 05:28:52;;;;;;;;;;;;;;;0.78;71.21;98553.08;105064;1270;73779;-24
2022/02/06 05:31:36;;;;;;;;;;;;;;;1.09;69.61;98547.30;105134;1271;76056;-24
2022/02/06 05:34:04;;;;;;;;;;;;;;;1.05;69.39;98545.77;105192;1270;74477;-24
2022/02/06 05:36:34;;;;;;;;;;;;;;;0.89;69.90;98540.91;105108;1270;61042;-24
2022/02/06 05:39:02;;;;;;;;;;;;;;;0.74;70.37;98544.37;104743;1271;61764;-23
2022/02/06 05:41:31;;;;;;;;;;;;;;;0.56;71.03;98541.67;104707;1271;75496;-23
2022/02/06 05:43:59;;;;;;;;;;;;;;;0.37;71.60;98547.85;105021;1270;75933;-24
2022/02/06 05:46:28;;;;;;;;;;;;;;;0.21;72.38;98547.42;104739;1271;73308;-23
2022/02/06 05:48:56;;;;;;;;;;;;;;;0.09;72.75;98544.38;104926;1270;61178;-23
2022/02/06 05:51:24;;;;;;;;;;;;;;;0.05;72.73;98538.09;104991;1270;61580;-23
2022/02/06 05:53:54;;;;;;;;;;;;;;;0.48;72.30;98543.94;104964;1271;74501;-23
2022/02/06 05:56:23;;;;;;;;;;;;;;;0.94;70.56;98550.08;104957;1270;75180;-23
2022/02/06 05:58:52;;;;;;;;;;;;;;;0.94;70.39;98553.48;104876;1271;73016;-23
2022/02/06 06:01:20;;;;;;;;;;;;;;;0.78;70.76;98554.27;105131;1270;61129;-23
2022/02/06 06:03:50;;;;;;;;;;;;;;;0.65;71.27;98553.17;105007;1271;61138;-23
2022/02/06 06:06:18;;;;;;;;;;;;;;;0.50;72.00;98552.55;104984;1271;75531;-23
2022/02/06 06:08:47;;;;;;;;;;;;;;;0.35;72.47;98545.20;104949;1270;76048;-23
2022/02/06 06:11:15;;;;;;;;;;;;;;;0.21;72.94;98550.17;105023;1270;74311;-23
2022/02/06 06:13:43;;;;;;;;;;;;;;;0.12;73.24;98546.25;105142;1270;61858;-23
2022/02/06 06:16:24;;;;;;;;;;;;;;;0.55;72.68;98548.21;105162;1271;61057;-23
2022/02/06 06:19:13;;;;;;;;;;;;;;;1.20;70.27;98550.33;105157;1270;76223;-23
2022/02/06 06:22:05;;;;;;;;;;;;;;;1.27;69.65;98546.20;105137;1270;77383;-24
2022/02/06 06:24:40;;;;;;;;;;;;;;;1.16;69.85;98545.20;105005;1270;74355;-23
2022/02/06 06:27:08;;;;;;;;;;;;;;;0.96;70.52;98551.48;104777;1271;61136;-23
2022/02/06 06:29:40;;;;;;;;;;;;;;;0.79;71.34;98555.27;104786;1271;62111;-23
2022/02/06 06:32:09;;;;;;;;;;;;;;;0.66;71.95;98555.05;105061;1270;75419;-24
2022/02/06 06:34:37;;;;;;;;;;;;;;;0.57;72.06;98554.44;105229;1270;75583;-24
2022/02/06 06:37:06;;;;;;;;;;;;;;;0.42;72.99;98546.11;105134;1270;73300;-23
2022/02/06 06:39:43;;;;;;;;;;;;;;;0.61;73.40;98547.56;105026;1271;62605;-23
2022/02/06 06:42:12;;;;;;;;;;;;;;;1.35;70.87;98547.33;104848;1271;61150;-23
2022/02/06 06:44:41;;;;;;;;;;;;;;;1.59;69.76;98546.40;105038;1270;75525;-23
2022/02/06 06:47:09;;;;;;;;;;;;;;;1.55;69.72;98535.15;105100;1270;75131;-23
2022/02/06 06:49:37;;;;;;;;;;;;;;;1.37;70.12;98528.90;105111;1271;74578;-23
2022/02/06 06:52:07;;;;;;;;;;;;;;;1.21;70.66;98522.88;104974;1271;61160;-23
2022/02/06 06:54:43;;;;;;;;;;;;;;;1.02;71.34;98521.44;104739;1272;61145;-23
2022/02/06 07:02:27;;;;;;;;;;;;;;;0.63;73.20;98523.06;104802;1271;71799;-23
2022/02/06 07:04:57;;;;;;;;;;;;;;;1.39;71.02;98530.33;104948;1270;61174;-23
2022/02/06 07:07:26;;;;;;;;;;;;;;;1.74;69.46;98523.26;104784;1271;61377;-23
2022/02/06 07:09:54;;;;;;;;;;;;;;;1.83;68.76;98525.30;104756;1273;74529;-23
2022/02/06 07:12:22;;;;;;;;;;;;;;;1.85;68.55;98529.31;104738;1273;76056;-23
2022/02/06 07:14:51;;;;;;;;;;;;;;;1.91;68.34;98522.52;104969;1271;74090;-23
2022/02/06 07:17:20;;;;;;;;;;;;;;;1.89;68.40;98524.49;104839;1271;61313;-23
2022/02/06 07:19:48;;;;;;;;;;;;;;;1.92;68.54;98520.37;104793;1271;61160;-24
2022/02/06 07:22:19;;;;;;;;;;;;;;;1.84;68.41;98521.65;104978;1270;74312;-23
2022/02/06 07:24:47;;;;;;;;;;;;;;;1.62;68.53;98525.23;104848;1271;74129;-23
2022/02/06 07:27:23;;;;;;;;;;;;;;;1.43;69.22;98522.26;104986;1270;73598;-23
2022/02/06 07:29:51;;;;;;;;;;;;;;;1.29;69.74;98518.41;104850;1271;61198;-24
2022/02/06 07:32:20;;;;;;;;;;;;;;;1.08;70.13;98517.41;105023;1271;61610;-24
2022/02/06 07:34:50;;;;;;;;;;;;;;;0.97;70.94;98520.34;105198;1269;75495;-24
2022/02/06 07:37:18;;;;;;;;;;;;;;;1.06;70.81;98526.39;104944;1270;76120;-23
2022/02/06 07:39:48;;;;;;;;;;;;;;;1.28;69.98;98525.77;104999;1271;74165;-23
2022/02/06 07:42:17;;;;;;;;;;;;;;;1.39;69.48;98525.59;105111;1271;61144;-24
2022/02/06 07:44:50;;;;;;;;;;;;;;;1.51;69.44;98522.02;105216;1270;61039;-24
2022/02/06 07:47:20;;;;;;;;;;;;;;;1.68;68.91;98526.48;105224;1271;75506;-24
2022/02/06 07:49:49;;;;;;;;;;;;;;;1.71;68.91;98526.66;105166;1271;76178;-24
2022/02/06 07:52:19;;;;;;;;;;;;;;;1.60;68.91;98519.19;105102;1272;74632;-23
2022/02/06 07:54:47;;;;;;;;;;;;;;;1.45;69.47;98521.84;104969;1270;61478;-23
2022/02/06 07:57:15;;;;;;;;;;;;;;;1.36;69.74;98523.52;104800;1273;61891;-23
2022/02/06 07:59:43;;;;;;;;;;;;;;;1.25;70.15;98533.48;104929;1271;75564;-23
2022/02/06 08:02:12;;;;;;;;;;;;;;;1.18;70.35;98530.75;105182;1270;76010;-23
2022/02/06 08:04:44;;;;;;;;;;;;;;;1.16;70.90;98522.81;105195;1270;73350;-23
2022/02/06 08:07:12;;;;;;;;;;;;;;;1.77;69.80;98523.75;105213;1270;61077;-23
2022/02/06 08:12:15;;;;;;;;;;;;;;;2.27;69.33;98523.61;104996;1270;74753;-23
2022/02/06 08:17:19;;;;;;;;;;;;;;;2.05;70.09;98520.54;104990;1270;72758;-23
2022/02/06 08:19:47;;;;;;;;;;;;;;;1.90;70.07;98519.30;104794;1272;61078;-23
2022/02/06 08:22:15;;;;;;;;;;;;;;;1.77;70.25;98514.85;104964;1271;61023;-23
2022/02/06 08:24:44;;;;;;;;;;;;;;;1.69;70.16;98510.36;105054;1271;75018;-24
2022/02/06 08:27:13;;;;;;;;;;;;;;;1.71;70.21;98511.45;104919;1272;75053;-23
2022/02/06 08:29:44;;;;;;;;;;;;;;;1.77;69.69;98503.91;105201;1270;71726;-23
2022/02/06 08:32:13;;;;;;;;;;;;;;;1.86;69.03;98503.25;105190;1271;61113;-23
2022/02/06 08:34:45;;;;;;;;;;;;;;;1.79;68.78;98494.89;105080;1271;61981;-23
2022/02/06 08:37:13;;;;;;;;;;;;;;;1.77;68.86;98504.40;105025;1270;75376;-24
2022/02/06 08:39:43;;;;;;;;;;;;;;;1.74;68.77;98498.09;104844;1274;76026;-23
2022/02/06 08:42:12;;;;;;;;;;;;;;;1.78;68.80;98502.80;104913;1271;74118;-23
2022/02/06 08:44:41;;;;;;;;;;;;;;;1.77;68.56;98497.23;104967;1270;61256;-23
2022/02/06 08:47:30;;;;;;;;;;;;;;;1.82;67.90;98485.34;104169;1277;61023;-23
2022/02/06 08:50:00;;;;;;;;;;;;;;;2.44;66.37;98486.16;104263;1278;75557;-23
2022/02/06 08:52:28;;;;;;;;;;;;;;;2.70;64.47;98477.14;104212;1281;74937;-23
2022/02/06 08:54:56;;;;;;;;;;;;;;;2.76;64.30;98481.80;104163;1281;71596;-23
2022/02/06 08:57:26;;;;;;;;;;;;;;;2.70;64.26;98481.80;104195;1281;60963;-23
2022/02/06 08:59:55;;;;;;;;;;;;;;;2.60;64.24;98476.73;104232;1281;60972;-24
2022/02/06 09:02:24;;;;;;;;;;;;;;;2.53;64.56;98490.09;104298;1278;75632;-23
2022/02/06 09:04:53;;;;;;;;;;;;;;;2.58;64.67;98483.38;104526;1281;73507;-23
2022/02/06 09:07:22;;;;;;;;;;;;;;;2.58;64.98;98483.21;104535;1281;74199;-23
2022/02/06 09:09:56;;;;;;;;;;;;;;;2.47;64.65;98475.90;104570;1278;61201;-23
2022/02/06 09:12:42;;;;;;;;;;;;;;;2.38;64.83;98469.23;104878;1273;61122;-23
2022/02/06 09:15:14;;;;;;;;;;;;;;;2.28;64.90;98467.02;105035;1272;75605;-23
2022/02/06 09:17:43;;;;;;;;;;;;;;;2.18;65.39;98466.02;104930;1271;75862;-23
2022/02/06 09:20:11;;;;;;;;;;;;;;;2.19;65.40;98470.30;104935;1271;74392;-24
2022/02/06 09:22:40;;;;;;;;;;;;;;;2.20;64.95;98469.52;104926;1271;61130;-24
2022/02/06 09:25:11;;;;;;;;;;;;;;;2.17;65.26;98464.05;104946;1271;61144;-25
2022/02/06 09:27:39;;;;;;;;;;;;;;;2.12;64.96;98464.67;104828;1273;75255;-23
2022/02/06 09:30:09;;;;;;;;;;;;;;;2.04;64.17;98456.54;105036;1270;76278;-23
2022/02/06 09:37:36;;;;;;;;;;;;;;;1.98;64.76;98460.64;105045;1271;61161;-24
2022/02/06 09:40:08;;;;;;;;;;;;;;;2.01;64.23;98454.67;104989;1271;74507;-24
2022/02/06 09:42:37;;;;;;;;;;;;;;;2.02;64.30;98448.64;104829;1274;74239;-24
2022/02/06 09:45:06;;;;;;;;;;;;;;;2.01;64.33;98446.27;104970;1271;73397;-24
2022/02/06 09:47:34;;;;;;;;;;;;;;;1.98;64.30;98447.31;104861;1274;61192;-24
2022/02/06 09:50:03;;;;;;;;;;;;;;;2.01;64.10;98443.19;104991;1270;61844;-24
2022/02/06 09:52:31;;;;;;;;;;;;;;;2.04;64.13;98439.98;104967;1271;75461;-24
2022/02/06 09:55:04;;;;;;;;;;;;;;;2.00;64.11;98435.89;105137;1271;75816;-23
2022/02/06 09:57:42;;;;;;;;;;;;;;;2.04;63.87;98435.85;105147;1271;74192;-23
2022/02/06 10:00:11;;;;;;;;;;;;;;;2.13;63.78;98438.58;105126;1274;61420;-22
2022/02/06 10:02:47;;;;;;;;;;;;;;;2.14;63.34;98435.48;105125;1271;61007;-22
2022/02/06 10:05:15;;;;;;;;;;;;;;;2.14;63.03;98426.02;105029;1271;75627;-22
2022/02/06 10:07:51;;;;;;;;;;;;;;;2.09;62.73;98428.55;105136;1270;76141;-23
2022/02/06 10:10:19;;;;;;;;;;;;;;;2.05;62.95;98430.97;105093;1271;74661;-22
2022/02/06 10:12:48;;;;;;;;;;;;;;;2.11;62.94;98433.22;105182;1271;62039;-25
2022/02/06 10:15:17;;;;;;;;;;;;;;;2.18;62.61;98423.75;105157;1270;61017;-24
2022/02/06 10:17:47;;;;;;;;;;;;;;;2.26;61.89;98412.33;105134;1271;74508;-24
2022/02/06 10:20:20;;;;;;;;;;;;;;;2.26;61.59;98408.42;105101;1272;75978;-23
2022/02/06 10:22:56;;;;;;;;;;;;;;;2.57;60.72;98413.09;105146;1274;72425;-24
2022/02/06 10:25:25;;;;;;;;;;;;;;;2.63;60.09;98399.60;105155;1271;61152;-25
2022/02/06 10:30:45;;;;;;;;;;;;;;;2.54;59.81;98390.88;104973;1272;75323;-24
2022/02/06 10:33:18;;;;;;;;;;;;;;;2.49;59.58;98396.08;104845;1274;76012;-21
2022/02/06 10:35:48;;;;;;;;;;;;;;;2.63;59.38;98392.06;104828;1271;73300;-24
2022/02/06 10:38:16;;;;;;;;;;;;;;;2.77;59.19;98393.97;104737;1273;61084;-23
2022/02/06 10:40:45;;;;;;;;;;;;;;;2.82;58.46;98384.59;105161;1270;60990;-23
2022/02/06 10:43:14;;;;;;;;;;;;;;;2.79;58.17;98376.33;104951;1269;74750;-22
2022/02/06 10:45:42;;;;;;;;;;;;;;;2.68;57.94;98361.55;104913;1271;72995;-24
2022/02/06 10:48:21;;;;;;;;;;;;;;;2.61;57.99;98369.05;105081;1270;74419;-25
2022/02/06 10:50:50;;;;;;;;;;;;;;;2.53;58.69;98372.23;105088;1271;61798;-25
2022/02/06 10:53:19;;;;;;;;;;;;;;;2.57;58.76;98374.10;105135;1271;61526;-22
2022/02/06 10:55:58;;;;;;;;;;;;;;;2.58;59.13;98369.59;105041;1271;73539;-24
2022/02/06 10:58:28;;;;;;;;;;;;;;;2.49;57.99;98362.73;104734;1273;76347;-22
2022/02/06 11:00:56;;;;;;;;;;;;;;;2.39;58.85;98361.23;104992;1270;74425;-22
2022/02/06 11:03:37;;;;;;;;;;;;;;;2.33;58.63;98355.55;104968;1270;61049;-25
2022/02/06 11:06:41;;;;;;;;;;;;;;;2.25;58.99;98344.36;105139;1271;61619;-26
2022/02/06 11:09:26;;;;;;;;;;;;;;;2.19;59.17;98349.02;105117;1271;75697;-24
2022/02/06 11:11:57;;;;;;;;;;;;;;;2.22;59.26;98355.17;104957;1271;73473;-26
2022/02/06 11:14:26;;;;;;;;;;;;;;;2.22;59.67;98346.41;105016;1271;72266;-25
2022/02/06 11:16:55;;;;;;;;;;;;;;;2.17;59.94;98346.77;104808;1272;61266;-25
2022/02/06 11:19:24;;;;;;;;;;;;;;;2.12;60.07;98347.71;105110;1273;61682;-24
2022/02/06 11:22:12;;;;;;;;;;;;;;;2.12;60.37;98349.77;105183;1270;75569;-25
2022/02/06 11:24:45;;;;;;;;;;;;;;;2.11;60.18;98347.96;104962;1271;74893;-24
2022/02/06 11:27:13;;;;;;;;;;;;;;;2.05;60.13;98337.00;105173;1273;74465;-24
2022/02/06 11:29:42;;;;;;;;;;;;;;;2.02;60.29;98339.70;105158;1271;61074;-24
2022/02/06 11:32:11;;;;;;;;;;;;;;;1.97;60.51;98345.17;105202;1271;60963;-23
2022/02/06 11:34:42;;;;;;;;;;;;;;;1.95;60.75;98332.59;104955;1271;75665;-23
2022/02/06 11:45:32;;;;;;;;;;;;;;;1.75;62.53;98324.46;105146;1270;60963;-23
2022/02/06 11:48:03;;;;;;;;;;;;;;;1.71;62.89;98321.45;105154;1273;75509;-23
2022/02/06 11:50:32;;;;;;;;;;;;;;;1.67;63.63;98309.20;104972;1271;74026;-23
2022/02/06 11:53:04;;;;;;;;;;;;;;;1.58;64.56;98299.95;104961;1270;74364;-23
2022/02/06 11:55:36;;;;;;;;;;;;;;;1.58;64.88;98309.14;104803;1271;61173;-23
2022/02/06 11:58:30;;;;;;;;;;;;;;;1.54;65.18;98297.79;104768;1270;61035;-23
2022/02/06 12:01:07;;;;;;;;;;;;;;;1.49;66.29;98298.06;104922;1270;75501;-24
2022/02/06 12:03:55;;;;;;;;;;;;;;;1.46;66.92;98292.57;104923;1270;75971;-24
2022/02/06 12:06:25;;;;;;;;;;;;;;;1.46;67.32;98291.21;104651;1271;74451;-23
2022/02/06 12:09:00;;;;;;;;;;;;;;;1.89;67.17;98293.20;104768;1272;61429;-26
2022/02/06 12:11:34;;;;;;;;;;;;;;;2.28;65.31;98284.44;104971;1271;61134;-21
2022/02/06 12:14:13;;;;;;;;;;;;;;;2.43;64.79;98283.52;104827;1271;74458;-20
2022/02/06 12:16:57;;;;;;;;;;;;;;;2.43;64.62;98285.11;104871;1271;75980;-22
2022/02/06 12:19:29;;;;;;;;;;;;;;;2.38;64.88;98280.96;105121;1270;73665;-22
2022/02/06 12:22:18;;;;;;;;;;;;;;;2.31;65.14;98281.86;105109;1270;61263;-25
2022/02/06 12:24:46;;;;;;;;;;;;;;;2.22;65.54;98274.70;104983;1270;60914;-24
2022/02/06 12:27:21;;;;;;;;;;;;;;;2.06;66.06;98259.88;104860;1270;74068;-23
2022/02/06 12:29:52;;;;;;;;;;;;;;;1.98;66.71;98274.92;104832;1271;75988;-23
2022/02/06 12:32:31;;;;;;;;;;;;;;;1.90;67.23;98277.59;104792;1271;73618;-24
2022/02/06 12:37:50;;;;;;;;;;;;;;;1.54;68.26;98266.09;105146;1270;61625;-22
2022/02/06 12:40:21;;;;;;;;;;;;;;;1.53;68.21;98265.15;105139;1271;75506;-22
2022/02/06 12:42:53;;;;;;;;;;;;;;;1.54;68.64;98271.58;104832;1270;75414;-23
2022/02/06 12:45:24;;;;;;;;;;;;;;;2.08;67.34;98267.13;104946;1271;73389;-22
2022/02/06 12:47:56;;;;;;;;;;;;;;;2.54;64.88;98267.86;104902;1270;60990;-21
2022/02/06 12:50:26;;;;;;;;;;;;;;;2.61;64.17;98262.76;104852;1270;61225;-22
2022/02/06 12:52:54;;;;;;;;;;;;;;;2.50;63.91;98261.20;105017;1270;75584;-22
2022/02/06 12:55:26;;;;;;;;;;;;;;;2.34;64.26;98257.52;105101;1270;76064;-22
2022/02/06 12:57:54;;;;;;;;;;;;;;;2.25;64.26;98257.04;105109;1271;73375;-22
2022/02/06 13:00:46;;;;;;;;;;;;;;;2.08;64.28;98246.60;105209;1270;61005;-22
2022/02/06 13:03:26;;;;;;;;;;;;;;;2.03;63.90;98246.71;105011;1271;61154;-24
2022/02/06 13:05:56;;;;;;;;;;;;;;;1.98;63.55;98240.34;104991;1270;75610;-23
2022/02/06 13:08:25;;;;;;;;;;;;;;;1.98;63.41;98234.83;105147;1270;75896;-23
2022/02/06 13:10:55;;;;;;;;;;;;;;;2.01;62.79;98231.76;105194;1270;72621;-23
2022/02/06 13:13:30;;;;;;;;;;;;;;;1.96;62.76;98232.02;104999;1271;61145;-22
2022/02/06 13:24:28;;;;;;;;;;;;;;;2.23;60.59;98219.48;105145;1270;74458;-22
2022/02/06 13:27:20;;;;;;;;;;;;;;;2.16;59.84;98205.54;104709;1270;61042;-23
2022/02/06 13:30:07;;;;;;;;;;;;;;;2.08;59.76;98209.59;104893;1270;60994;-23
2022/02/06 13:33:02;;;;;;;;;;;;;;;2.06;60.29;98206.97;104901;1270;75662;-22
2022/02/06 13:35:54;;;;;;;;;;;;;;;2.14;59.72;98206.84;105112;1270;75975;-23
2022/02/06 13:38:22;;;;;;;;;;;;;;;2.18;59.15;98198.71;105098;1271;74437;-22
2022/02/06 13:40:51;;;;;;;;;;;;;;;2.18;58.91;98196.30;105209;1270;61205;-22
2022/02/06 13:43:23;;;;;;;;;;;;;;;2.20;58.76;98197.05;104927;1271;60949;-23
2022/02/06 13:45:55;;;;;;;;;;;;;;;2.12;58.81;98198.24;105002;1270;73610;-25
2022/02/06 13:48:26;;;;;;;;;;;;;;;1.96;58.96;98188.40;104919;1271;75988;-22
2022/02/06 13:50:58;;;;;;;;;;;;;;;1.92;59.13;98188.11;104811;1271;74133;-23
2022/02/06 13:53:29;;;;;;;;;;;;;;;1.81;59.30;98182.25;104972;1270;61052;-24
2022/02/06 13:56:03;;;;;;;;;;;;;;;1.70;59.30;98183.05;105066;1270;61154;-23
2022/02/06 13:58:32;;;;;;;;;;;;;;;1.66;59.83;98182.13;104815;1270;74483;-23
2022/02/06 14:01:01;;;;;;;;;;;;;;;1.59;60.25;98174.30;104926;1270;76216;-24
2022/02/06 14:03:52;;;;;;;;;;;;;;;1.59;60.14;98168.96;104787;1271;74366;-22
2022/02/06 14:06:25;;;;;;;;;;;;;;;1.56;60.33;98171.35;105115;1270;61139;-23
2022/02/06 14:09:27;;;;;;;;;;;;;;;1.56;60.31;98166.05;105124;1270;61840;-22
2022/02/06 14:12:01;;;;;;;;;;;;;;;1.55;60.35;98169.89;105053;1271;75484;-24
2022/02/06 14:14:35;;;;;;;;;;;;;;;1.50;60.81;98161.65;104778;1270;74691;-22
2022/02/06 14:17:25;;;;;;;;;;;;;;;1.49;60.68;98165.46;105181;1270;74098;-22
2022/02/06 14:19:54;;;;;;;;;;;;;;;1.49;60.75;98159.51;105167;1270;61386;-22
2022/02/06 14:22:33;;;;;;;;;;;;;;;1.46;60.88;98164.25;105147;1270;61807;-22
2022/02/06 14:25:03;;;;;;;;;;;;;;;1.46;61.02;98153.98;105099;1271;75744;-22
2022/02/06 14:27:34;;;;;;;;;;;;;;;1.43;61.35;98153.80;105167;1270;75491;-22
2022/02/06 14:30:15;;;;;;;;;;;;;;;1.41;61.34;98156.19;105133;1270;73410;-22
2022/02/06 14:32:58;;;;;;;;;;;;;;;1.37;61.56;98150.41;104947;1270;61069;-22
2022/02/06 14:35:36;;;;;;;;;;;;;;;1.37;61.80;98149.38;104965;1270;61122;-25
2022/02/06 14:38:06;;;;;;;;;;;;;;;1.29;62.09;98144.34;104965;1270;75620;-22
2022/02/06 14:41:06;;;;;;;;;;;;;;;1.30;61.94;98140.70;104954;1270;76059;-22
2022/02/06 14:43:37;;;;;;;;;;;;;;;1.27;62.32;98135.45;104934;1270;73401;-22
2022/02/06 14:46:06;;;;;;;;;;;;;;;1.27;61.92;98122.41;104967;1270;61131;-22
2022/02/06 14:48:35;;;;;;;;;;;;;;;1.29;62.25;98121.47;105125;1270;61810;-22
2022/02/06 14:51:03;;;;;;;;;;;;;;;1.27;62.12;98126.00;104996;1270;75799;-22
2022/02/06 14:53:32;;;;;;;;;;;;;;;1.29;62.17;98124.21;104975;1270;75027;-22
2022/02/06 14:56:00;;;;;;;;;;;;;;;1.29;62.45;98128.49;105058;1270;74379;-22
2022/02/06 14:58:29;;;;;;;;;;;;;;;1.29;62.31;98123.02;105052;1270;61414;-22
2022/02/06 15:01:03;;;;;;;;;;;;;;;1.30;62.41;98123.98;105206;1270;61048;-22
2022/02/06 15:03:32;;;;;;;;;;;;;;;1.29;62.84;98127.61;105115;1270;75557;-22
2022/02/06 15:06:01;;;;;;;;;;;;;;;1.25;62.96;98122.71;105139;1271;74713;-22
2022/02/06 15:08:31;;;;;;;;;;;;;;;1.26;62.53;98117.70;105144;1270;73363;-22
2022/02/06 15:11:20;;;;;;;;;;;;;;;1.28;63.04;98115.38;105090;1270;61250;-22
2022/02/06 15:14:02;;;;;;;;;;;;;;;1.28;63.25;98112.64;105128;1270;61114;-23
2022/02/06 15:16:33;;;;;;;;;;;;;;;1.24;63.34;98107.54;105019;1270;75848;-22
2022/02/06 15:19:13;;;;;;;;;;;;;;;1.26;63.20;98102.96;105062;1270;74893;-23
2022/02/06 15:21:42;;;;;;;;;;;;;;;1.29;63.33;98102.83;105046;1270;74576;-22
2022/02/06 15:24:12;;;;;;;;;;;;;;;1.32;63.02;98103.52;104912;1270;61152;-22
2022/02/06 15:26:42;;;;;;;;;;;;;;;1.31;63.24;98103.55;104798;1270;61150;-22
2022/02/06 15:29:10;;;;;;;;;;;;;;;1.31;63.59;98099.94;104599;1270;568571;-23
2022/02/06 15:31:38;;;;;;;;;;;;;;;1.30;63.33;98099.85;104872;1271;75168;-25
2022/02/06 15:34:17;;;;;;;;;;;;;;;1.28;63.64;98093.83;104942;1270;74249;-25
2022/02/06 15:36:50;;;;;;;;;;;;;;;1.25;64.16;98089.55;105122;1270;61020;-25
2022/02/06 15:39:25;;;;;;;;;;;;;;;1.26;64.10;98092.25;104843;1271;61773;-22
2022/02/06 15:41:55;;;;;;;;;;;;;;;1.27;63.79;98081.92;104790;1271;75534;-23
2022/02/06 15:44:24;;;;;;;;;;;;;;;1.28;63.70;98082.16;104904;1271;74523;-22
2022/02/06 15:46:53;;;;;;;;;;;;;;;1.27;64.06;98076.08;104922;1270;74400;-22
2022/02/06 15:49:22;;;;;;;;;;;;;;;1.29;64.15;98077.71;104906;1270;61137;-22
2022/02/06 15:51:51;;;;;;;;;;;;;;;1.28;64.46;98076.89;104941;1270;61032;-22
2022/02/06 15:54:19;;;;;;;;;;;;;;;1.27;64.39;98077.77;104916;1270;75521;-22